Time;durP1;ratioP1;P1;durP2;ratioP2;P2;SDS_P1;SDS_P2;PMS_P1;PMS_P2;Temp;Humidity;BMP_temperature;BMP_pressure;BME280_temperature;BME280_humidity;BME280_pressure;Samples;Min_cycle;Max_cycle;Signal;HPM_P1;HPM_P2
2021/05/22 00:01:05;;;;;;;1.23;0.80;;;;;;;10.02;82.15;153931.88;5065125;28;20443;-76
2021/05/22 00:03:40;;;;;;;1.60;0.80;;;;;;;9.97;80.90;153918.91;5062187;28;20451;-76
2021/05/22 00:06:15;;;;;;;0.87;0.73;;;;;;;9.91;80.88;153903.38;5059837;28;20446;-76
2021/05/22 00:08:51;;;;;;;2.10;0.70;;;;;;;9.95;82.46;153913.75;5069274;28;20454;-76
2021/05/22 00:11:26;;;;;;;1.53;0.80;;;;;;;9.92;81.49;153906.00;5065809;28;20445;-76
2021/05/22 00:14:01;;;;;;;1.97;1.23;;;;;;;9.90;79.47;153900.81;5081828;28;20476;-76
2021/05/22 00:16:36;;;;;;;1.10;0.80;;;;;;;9.87;82.64;153893.06;5078086;28;20807;-76
2021/05/22 00:19:13;;;;;;;1.10;0.73;;;;;;;9.83;80.73;153883.97;5077474;28;20838;-76
2021/05/22 00:21:48;;;;;;;3.00;1.00;;;;;;;9.86;81.87;153891.75;5078402;28;20434;-76
2021/05/22 00:24:23;;;;;;;1.73;0.73;;;;;;;9.85;82.38;153889.16;5077513;28;20825;-76
2021/05/22 00:26:58;;;;;;;1.20;1.10;;;;;;;9.88;81.48;153896.91;5079163;28;20436;-76
2021/05/22 00:29:33;;;;;;;3.17;1.47;;;;;;;9.78;82.14;153872.34;5077404;28;20448;-76
2021/05/22 00:32:08;;;;;;;1.37;0.90;;;;;;;9.73;80.21;153859.41;5061380;28;20473;-76
2021/05/22 00:34:45;;;;;;;0.90;0.60;;;;;;;9.72;80.91;153856.81;5061863;28;20459;-76
2021/05/22 00:37:20;;;;;;;1.00;0.70;;;;;;;9.68;81.59;153846.47;5076926;28;20477;-76
2021/05/22 00:39:55;;;;;;;1.23;0.80;;;;;;;9.67;78.56;153843.88;5094411;28;20534;-76
2021/05/22 00:42:30;;;;;;;1.03;0.67;;;;;;;9.70;79.42;153851.63;5071522;28;20494;-76
2021/05/22 00:45:17;;;;;;;1.30;0.90;;;;;;;9.63;80.41;153833.53;5064022;28;20444;-76
2021/05/22 00:47:53;;;;;;;1.50;0.80;;;;;;;9.61;81.44;153827.06;5061005;28;20457;-76
2021/05/22 00:50:30;;;;;;;1.10;0.83;;;;;;;9.54;79.38;153810.25;5075981;28;20480;-75
2021/05/22 00:53:07;;;;;;;0.97;0.60;;;;;;;9.54;82.42;153810.25;5061312;28;20653;-76
2021/05/22 00:55:42;;;;;;;1.20;0.73;;;;;;;9.50;81.04;153799.91;5074618;28;20433;-76
2021/05/22 00:58:17;;;;;;;1.20;0.73;;;;;;;9.50;80.38;153799.91;5084376;28;20452;-76
2021/05/22 01:00:54;;;;;;;1.53;1.00;;;;;;;9.41;82.18;153776.59;5059714;28;20509;-76
2021/05/22 01:03:33;;;;;;;1.93;0.90;;;;;;;9.45;83.77;153785.69;5057050;28;20544;-76
2021/05/22 01:06:12;;;;;;;1.00;0.70;;;;;;;9.43;83.53;153780.47;5071099;28;20452;-76
2021/05/22 01:08:49;;;;;;;1.23;0.87;;;;;;;9.42;82.87;153777.91;5076329;28;20448;-76
2021/05/22 01:11:27;;;;;;;1.40;1.00;;;;;;;9.42;82.54;153779.22;5076626;28;20445;-76
2021/05/22 01:14:04;;;;;;;1.20;0.60;;;;;;;9.37;83.01;153766.22;5076091;28;20854;-76
2021/05/22 01:16:41;;;;;;;0.90;0.80;;;;;;;9.38;82.54;153768.84;5059091;28;20440;-76
2021/05/22 01:19:19;;;;;;;2.20;0.83;;;;;;;9.40;85.62;153774.00;5076358;28;20479;-76
2021/05/22 01:21:55;;;;;;;1.40;0.70;;;;;;;9.32;85.14;153753.31;5076389;28;20966;-76
2021/05/22 01:24:33;;;;;;;0.90;0.70;;;;;;;9.35;83.67;153761.06;5073623;28;20844;-76
2021/05/22 01:27:09;;;;;;;1.13;0.87;;;;;;;9.36;86.15;153762.38;5065154;28;20938;-76
2021/05/22 01:29:44;;;;;;;2.30;1.13;;;;;;;9.31;83.37;153750.75;5075654;28;21281;-76
2021/05/22 01:32:20;;;;;;;1.23;0.77;;;;;;;9.32;85.45;153752.03;5074659;28;20949;-76
2021/05/22 01:34:55;;;;;;;2.23;1.27;;;;;;;9.33;84.60;153755.91;5091401;28;20437;-76
2021/05/22 01:37:30;;;;;;;1.00;0.70;;;;;;;9.36;83.94;153762.38;5074771;28;20472;-76
2021/05/22 01:40:07;;;;;;;0.90;0.70;;;;;;;9.27;83.35;153740.38;5092753;28;20473;-76
2021/05/22 01:42:43;;;;;;;1.17;0.80;;;;;;;9.26;84.23;153736.50;5075991;28;20543;-76
2021/05/22 01:45:21;;;;;;;1.50;1.00;;;;;;;9.26;85.77;153737.81;5093459;28;20441;-76
2021/05/22 01:47:57;;;;;;;1.00;0.70;;;;;;;9.30;84.17;153746.84;5075371;28;20935;-76
2021/05/22 01:50:34;;;;;;;2.83;1.20;;;;;;;9.28;84.00;153741.69;5068420;28;20449;-76
2021/05/22 01:53:11;;;;;;;1.73;0.83;;;;;;;9.32;85.89;153752.03;5074003;28;20481;-76
2021/05/22 01:55:47;;;;;;;2.33;1.63;;;;;;;9.31;84.94;153750.75;5079334;28;20539;-76
2021/05/22 01:58:24;;;;;;;2.23;1.00;;;;;;;9.33;85.21;153755.91;5075344;28;20437;-76
2021/05/22 02:00:59;;;;;;;0.80;0.70;;;;;;;9.27;86.61;153740.38;5075627;28;20442;-76
2021/05/22 02:03:40;;;;;;;1.93;1.00;;;;;;;9.33;85.23;153755.91;5092364;28;20433;-76
2021/05/22 02:06:20;;;;;;;1.80;0.90;;;;;;;9.39;85.90;153771.44;5075016;28;20453;-76
2021/05/22 02:08:57;;;;;;;2.40;0.90;;;;;;;9.38;85.68;153768.84;5093211;28;20452;-76
2021/05/22 02:11:34;;;;;;;1.70;0.83;;;;;;;9.39;87.23;153771.44;5094177;28;20508;-76
2021/05/22 02:14:11;;;;;;;1.10;0.90;;;;;;;9.40;87.64;153774.00;5075431;28;20497;-76
2021/05/22 02:16:49;;;;;;;1.57;1.17;;;;;;;9.37;86.52;153766.22;5073361;28;20843;-76
2021/05/22 02:19:26;;;;;;;1.67;0.87;;;;;;;9.40;87.24;153774.00;5075776;28;20449;-76
2021/05/22 02:22:03;;;;;;;0.97;0.80;;;;;;;9.37;86.26;153766.22;5075370;28;20454;-76
2021/05/22 02:24:38;;;;;;;2.13;1.13;;;;;;;9.36;85.92;153763.66;5084743;28;20446;-76
2021/05/22 02:27:13;;;;;;;2.00;1.13;;;;;;;9.39;86.23;153770.13;5039695;28;20909;-76
2021/05/22 02:29:49;;;;;;;3.80;1.20;;;;;;;9.45;86.48;153786.94;5055478;28;20446;-75
2021/05/22 02:32:24;;;;;;;1.40;0.87;;;;;;;9.44;89.93;153783.06;5055428;28;21091;-76
2021/05/22 02:35:00;;;;;;;1.73;1.10;;;;;;;9.41;93.17;153775.31;5057752;28;20434;-76
2021/05/22 02:37:36;;;;;;;1.40;1.10;;;;;;;9.42;92.25;153779.22;5069963;28;20565;-76
2021/05/22 02:40:14;;;;;;;3.83;1.17;;;;;;;9.32;94.32;153753.31;5056610;28;20510;-76
2021/05/22 02:42:53;;;;;;;1.67;1.00;;;;;;;9.34;95.32;153758.50;5051969;28;20549;-76
2021/05/22 02:45:29;;;;;;;1.90;1.00;;;;;;;9.19;95.64;153719.69;5044076;28;20541;-76
2021/05/22 02:48:09;;;;;;;1.27;0.63;;;;;;;9.09;95.52;153695.13;5041709;28;20533;-76
2021/05/22 02:50:45;;;;;;;1.97;0.87;;;;;;;9.04;96.55;153682.19;5055095;28;20442;-77
2021/05/22 02:53:23;;;;;;;2.33;0.93;;;;;;;9.02;98.03;153677.03;5055358;28;20473;-77
2021/05/22 02:55:59;;;;;;;1.33;0.83;;;;;;;8.98;99.22;153665.34;5056596;28;20438;-77
2021/05/22 02:58:35;;;;;;;2.20;1.13;;;;;;;8.92;98.81;153651.13;5061631;28;20445;-78
2021/05/22 03:01:11;;;;;;;1.57;0.93;;;;;;;8.94;97.55;153655.03;5058368;28;20422;-76
2021/05/22 03:03:46;;;;;;;2.00;0.93;;;;;;;8.84;97.30;153629.19;5049407;28;20442;-76
2021/05/22 03:06:21;;;;;;;2.23;1.00;;;;;;;8.81;98.15;153622.72;5065973;28;20465;-76
2021/05/22 03:08:57;;;;;;;1.43;0.93;;;;;;;8.85;99.21;153631.75;5051476;28;20475;-76
2021/05/22 03:11:32;;;;;;;2.50;0.80;;;;;;;8.86;98.69;153634.34;5052904;28;20544;-76
2021/05/22 03:14:07;;;;;;;1.97;0.80;;;;;;;8.85;99.23;153633.03;5056009;28;20473;-76
2021/05/22 03:16:43;;;;;;;1.90;1.00;;;;;;;8.80;100.00;153620.13;5057216;28;20450;-76
2021/05/22 03:19:18;;;;;;;1.67;1.27;;;;;;;8.80;100.00;153620.13;5077007;28;20422;-76
2021/05/22 03:21:53;;;;;;;3.43;1.40;;;;;;;8.84;99.04;153629.19;5076788;28;20425;-76
2021/05/22 03:24:28;;;;;;;2.03;1.27;;;;;;;8.84;99.45;153629.19;5059050;28;20913;-76
2021/05/22 03:27:04;;;;;;;1.90;1.23;;;;;;;8.79;99.57;153616.25;5053023;28;20463;-76
2021/05/22 03:29:39;;;;;;;2.30;1.23;;;;;;;8.76;97.92;153608.50;5044863;28;20443;-76
2021/05/22 03:32:15;;;;;;;1.13;1.00;;;;;;;8.78;99.44;153613.66;5043877;28;20461;-76
2021/05/22 03:34:50;;;;;;;4.40;1.27;;;;;;;8.67;97.94;153585.22;5058114;28;20971;-76
2021/05/22 03:37:25;;;;;;;3.87;0.90;;;;;;;8.63;99.07;153574.88;5079556;28;20471;-76
2021/05/22 03:40:00;;;;;;;1.30;1.00;;;;;;;8.56;98.02;153558.06;5060003;28;20476;-76
2021/05/22 03:42:35;;;;;;;1.40;1.30;;;;;;;8.54;99.30;153554.19;5075144;28;20453;-76
2021/05/22 03:45:12;;;;;;;2.53;1.30;;;;;;;8.54;99.82;153552.91;5072339;28;20440;-76
2021/05/22 03:47:48;;;;;;;2.70;1.30;;;;;;;8.57;99.09;153560.66;5076177;28;20434;-76
2021/05/22 03:50:23;;;;;;;1.60;1.30;;;;;;;8.55;98.68;153556.75;5061201;28;20814;-76
2021/05/22 03:52:58;;;;;;;4.27;1.10;;;;;;;8.61;99.22;153569.69;5081999;28;20919;-76
2021/05/22 03:55:34;;;;;;;2.57;1.20;;;;;;;8.58;98.77;153564.53;5074674;28;20445;-76
2021/05/22 03:58:09;;;;;;;4.40;1.20;;;;;;;8.64;99.57;153577.44;5092106;28;20450;-76
2021/05/22 04:00:45;;;;;;;1.20;0.90;;;;;;;8.63;98.95;153574.88;5074882;28;20442;-76
2021/05/22 04:03:21;;;;;;;2.07;1.20;;;;;;;8.63;97.61;153574.88;5074225;28;20493;-76
2021/05/22 04:05:57;;;;;;;2.57;1.60;;;;;;;8.68;97.53;153587.81;5074728;28;20792;-76
2021/05/22 04:08:32;;;;;;;0.80;0.70;;;;;;;8.70;97.82;153592.97;5074588;28;20449;-76
2021/05/22 04:11:07;;;;;;;0.97;0.80;;;;;;;8.72;97.61;153598.13;5076157;28;20877;-76
2021/05/22 04:13:42;;;;;;;1.10;0.97;;;;;;;8.74;97.22;153603.28;5077183;28;20504;-76
2021/05/22 04:16:17;;;;;;;1.73;1.00;;;;;;;8.78;96.91;153613.66;5095461;28;20417;-76
2021/05/22 04:18:53;;;;;;;1.60;1.10;;;;;;;8.80;97.00;153618.81;5077810;28;20455;-76
2021/05/22 04:21:28;;;;;;;1.50;1.23;;;;;;;8.78;96.93;153614.97;5078464;28;20429;-76
2021/05/22 04:24:03;;;;;;;1.40;1.10;;;;;;;8.68;96.36;153589.13;5075988;28;20448;-76
2021/05/22 04:26:39;;;;;;;1.40;1.30;;;;;;;8.68;96.35;153587.81;5076745;28;20448;-76
2021/05/22 04:29:14;;;;;;;2.90;1.07;;;;;;;8.72;98.67;153599.44;5073405;28;20445;-76
2021/05/22 04:31:49;;;;;;;1.70;1.17;;;;;;;8.68;97.91;153587.81;5074049;28;20442;-76
2021/05/22 04:34:25;;;;;;;1.20;0.80;;;;;;;8.70;98.72;153592.97;5091096;28;20477;-76
2021/05/22 04:37:01;;;;;;;1.60;1.00;;;;;;;8.63;97.79;153576.13;5073845;28;20449;-76
2021/05/22 04:39:36;;;;;;;1.53;0.90;;;;;;;8.65;98.90;153581.34;5076568;28;20449;-76
2021/05/22 04:42:11;;;;;;;1.70;1.00;;;;;;;8.62;97.91;153572.28;5077442;28;20839;-76
2021/05/22 04:44:47;;;;;;;2.80;0.90;;;;;;;8.68;97.54;153587.81;5076736;28;20446;-76
2021/05/22 04:47:22;;;;;;;2.00;0.90;;;;;;;8.68;96.71;153587.81;5076355;28;20528;-76
2021/05/22 04:49:58;;;;;;;1.73;0.80;;;;;;;8.95;96.36;153657.59;5094366;28;20444;-76
2021/05/22 04:52:33;;;;;;;1.37;0.90;;;;;;;9.16;94.21;153711.91;5095251;28;20909;-76
2021/05/22 04:55:10;;;;;;;1.50;0.90;;;;;;;9.39;92.99;153771.44;5077216;28;20433;-76
2021/05/22 04:57:44;;;;;;;1.23;0.83;;;;;;;9.68;92.45;153845.16;5085090;28;20815;-76
2021/05/22 05:00:25;;;;;;;1.30;0.80;;;;;;;9.96;91.39;153916.31;5056993;28;20829;-76
2021/05/22 05:03:15;;;;;;;0.90;0.50;;;;;;;10.13;90.27;153960.41;5052219;28;20462;-75
2021/05/22 05:05:51;;;;;;;1.97;1.30;;;;;;;10.27;89.91;153996.66;5067496;28;20509;-74
2021/05/22 05:08:26;;;;;;;2.27;1.00;;;;;;;10.23;88.24;153987.56;5115794;28;20433;-75
2021/05/22 05:11:01;;;;;;;1.57;0.63;;;;;;;10.18;89.73;153973.34;5091289;28;21067;-75
2021/05/22 05:13:36;;;;;;;1.10;0.60;;;;;;;9.96;88.35;153917.63;5094927;28;20473;-75
2021/05/22 05:16:13;;;;;;;0.90;0.57;;;;;;;9.80;88.75;153876.22;5059657;28;20459;-75
2021/05/22 05:18:49;;;;;;;1.30;0.70;;;;;;;9.76;88.92;153867.19;5076969;28;20449;-77
2021/05/22 05:21:26;;;;;;;1.33;0.60;;;;;;;9.93;90.54;153908.59;5076496;28;20429;-75
2021/05/22 05:24:01;;;;;;;1.80;0.80;;;;;;;10.12;88.80;153957.72;5061421;28;21242;-77
2021/05/22 05:26:36;;;;;;;1.87;1.00;;;;;;;10.46;88.42;154045.81;5094013;28;20873;-77
2021/05/22 05:29:11;;;;;;;0.90;0.70;;;;;;;10.80;87.30;154132.59;5075543;28;20879;-77
2021/05/22 05:31:46;;;;;;;4.27;1.03;;;;;;;11.11;85.31;154211.59;5094046;28;20439;-76
2021/05/22 05:34:21;;;;;;;2.00;1.00;;;;;;;11.27;86.23;154253.03;5076384;28;20570;-74
2021/05/22 05:36:57;;;;;;;1.13;1.00;;;;;;;11.20;86.35;154234.94;5090956;28;20543;-77
2021/05/22 05:39:32;;;;;;;1.20;0.90;;;;;;;10.93;85.79;154167.53;5056822;28;20484;-74
2021/05/22 05:42:07;;;;;;;2.23;1.00;;;;;;;10.81;88.99;154136.47;5047981;28;21140;-77
2021/05/22 05:44:43;;;;;;;1.20;0.70;;;;;;;10.82;88.56;154139.06;5039547;28;20535;-77
2021/05/22 05:47:18;;;;;;;2.10;0.90;;;;;;;10.75;87.29;154120.91;5062911;28;20450;-77
2021/05/22 05:49:53;;;;;;;1.87;1.03;;;;;;;10.68;87.16;154101.50;5053539;28;20992;-77
2021/05/22 05:52:29;;;;;;;1.97;0.77;;;;;;;10.66;88.95;154097.63;5059712;28;20922;-77
2021/05/22 05:55:06;;;;;;;2.53;1.07;;;;;;;10.62;88.03;154085.94;5054560;28;20470;-77
2021/05/22 05:57:41;;;;;;;1.40;1.20;;;;;;;10.63;87.76;154089.84;5048267;28;20469;-77
2021/05/22 06:00:17;;;;;;;1.23;1.00;;;;;;;10.67;90.09;154100.19;5072764;28;20432;-77
2021/05/22 06:02:52;;;;;;;2.17;1.07;;;;;;;10.64;88.62;154091.16;5055827;28;20462;-77
2021/05/22 06:05:27;;;;;;;1.40;1.00;;;;;;;10.90;88.95;154159.78;5050386;28;20534;-77
2021/05/22 06:08:04;;;;;;;1.63;1.10;;;;;;;11.29;86.70;154258.22;5061362;28;20464;-77
2021/05/22 06:10:39;;;;;;;2.90;1.57;;;;;;;11.67;84.52;154355.41;5060913;28;20448;-77
2021/05/22 06:13:30;;;;;;;1.93;1.20;;;;;;;12.06;83.08;154457.84;5046821;28;20491;-77
2021/05/22 06:16:15;;;;;;;2.90;1.37;;;;;;;12.36;80.32;154533.03;5055031;28;20441;-77
2021/05/22 06:18:52;;;;;;;2.90;1.20;;;;;;;12.03;83.33;154448.75;5055937;28;20444;-77
2021/05/22 06:21:28;;;;;;;3.90;1.10;;;;;;;12.47;81.04;154561.59;5072566;28;20435;-76
2021/05/22 06:24:06;;;;;;;4.13;0.97;;;;;;;12.93;78.59;154679.56;5070723;28;20472;-77
2021/05/22 06:26:41;;;;;;;2.90;1.10;;;;;;;13.06;76.09;154714.59;5049834;28;20455;-76
2021/05/22 06:29:16;;;;;;;1.93;1.23;;;;;;;13.35;78.79;154789.91;5037745;28;20943;-76
2021/05/22 06:31:51;;;;;;;2.27;1.10;;;;;;;13.39;77.08;154800.31;5034380;28;20525;-76
2021/05/22 06:34:26;;;;;;;2.47;1.50;;;;;;;13.71;76.11;154880.78;5048936;28;20468;-76
2021/05/22 06:37:01;;;;;;;1.83;1.23;;;;;;;14.08;76.31;154976.84;5066666;28;20433;-77
2021/05/22 06:39:38;;;;;;;4.00;1.70;;;;;;;14.15;75.72;154995.00;5044597;28;20448;-76
2021/05/22 06:42:13;;;;;;;2.93;1.37;;;;;;;14.40;74.36;155059.94;5058203;28;20449;-76
2021/05/22 06:44:53;;;;;;;1.73;0.90;;;;;;;14.92;72.21;155192.47;5032141;28;20527;-76
2021/05/22 06:47:28;;;;;;;1.50;0.90;;;;;;;14.53;70.45;155092.47;5053499;28;21049;-76
2021/05/22 06:50:04;;;;;;;3.57;1.37;;;;;;;14.93;69.25;155195.06;5048058;28;20453;-76
2021/05/22 06:52:39;;;;;;;2.70;1.50;;;;;;;15.09;70.16;155237.91;5051262;28;20471;-76
2021/05/22 06:55:16;;;;;;;3.10;1.40;;;;;;;14.86;68.03;155176.84;5065937;28;20497;-76
2021/05/22 06:57:51;;;;;;;1.20;0.90;;;;;;;14.85;70.11;155174.28;5046879;28;20508;-77
2021/05/22 07:00:26;;;;;;;5.23;1.63;;;;;;;15.01;69.94;155215.88;5043783;28;20453;-76
2021/05/22 07:03:02;;;;;;;2.70;1.00;;;;;;;14.90;68.27;155188.56;5050418;28;20922;-77
2021/05/22 07:05:37;;;;;;;3.03;1.23;;;;;;;14.93;67.20;155196.34;5052415;28;20802;-77
2021/05/22 07:08:13;;;;;;;1.77;1.20;;;;;;;14.71;70.09;155139.22;5049987;28;20458;-76
2021/05/22 07:10:50;;;;;;;1.40;1.10;;;;;;;14.54;69.09;155096.31;5066140;28;20536;-76
2021/05/22 07:13:26;;;;;;;3.33;1.10;;;;;;;14.74;63.88;155145.69;5052810;28;20498;-76
2021/05/22 07:16:01;;;;;;;1.63;1.17;;;;;;;14.80;64.94;155161.31;5046067;28;20445;-76
2021/05/22 07:18:36;;;;;;;2.17;1.40;;;;;;;14.94;65.29;155197.66;5071581;28;20516;-77
2021/05/22 07:21:11;;;;;;;1.97;1.10;;;;;;;14.99;65.64;155211.94;5042813;28;20478;-77
2021/05/22 07:23:46;;;;;;;2.43;1.20;;;;;;;14.97;63.26;155205.44;5042199;28;20438;-77
2021/05/22 07:26:22;;;;;;;2.20;1.17;;;;;;;15.31;61.99;155293.78;5035334;28;20451;-77
2021/05/22 07:28:57;;;;;;;1.60;0.70;;;;;;;15.38;62.28;155311.97;5053076;28;20445;-77
2021/05/22 07:31:32;;;;;;;1.60;1.10;;;;;;;15.53;62.20;155349.75;5064394;28;20422;-77
2021/05/22 07:34:08;;;;;;;2.83;1.70;;;;;;;15.38;59.16;155311.97;5052267;28;20549;-76
2021/05/22 07:36:44;;;;;;;2.60;1.00;;;;;;;15.34;59.37;155301.59;5034169;28;20439;-76
2021/05/22 07:39:19;;;;;;;3.00;1.30;;;;;;;15.22;60.29;155270.44;5053670;28;20457;-78
2021/05/22 07:41:55;;;;;;;1.70;1.10;;;;;;;15.19;61.82;155262.63;5071927;28;20468;-77
2021/05/22 07:44:30;;;;;;;2.00;1.20;;;;;;;15.08;59.16;155235.34;5055124;28;20458;-75
2021/05/22 07:47:05;;;;;;;1.97;0.97;;;;;;;14.98;63.06;155208.06;5050057;28;20447;-75
2021/05/22 07:49:40;;;;;;;3.47;1.50;;;;;;;14.98;57.37;155209.38;5034368;28;20492;-75
2021/05/22 07:52:15;;;;;;;1.47;1.00;;;;;;;14.81;58.30;155163.88;5054061;28;20445;-75
2021/05/22 07:54:50;;;;;;;4.10;1.10;;;;;;;14.69;59.73;155132.72;5071992;28;20515;-76
2021/05/22 07:57:26;;;;;;;1.90;1.00;;;;;;;14.62;66.37;155117.09;5041854;28;20532;-76
2021/05/22 08:00:03;;;;;;;2.00;1.40;;;;;;;14.46;61.06;155074.25;5055005;28;20438;-75
2021/05/22 08:02:40;;;;;;;2.07;1.40;;;;;;;14.38;66.95;155054.75;5048845;28;20462;-76
2021/05/22 08:05:15;;;;;;;2.20;0.80;;;;;;;14.34;63.78;155044.41;5046801;28;20490;-76
2021/05/22 08:07:50;;;;;;;1.83;1.20;;;;;;;14.39;63.49;155057.38;5050165;28;20442;-75
2021/05/22 08:10:25;;;;;;;2.70;1.23;;;;;;;14.70;61.98;155136.59;5041128;28;20548;-75
2021/05/22 08:13:01;;;;;;;1.30;0.90;;;;;;;14.92;64.07;155192.47;5052222;28;20453;-76
2021/05/22 08:15:37;;;;;;;2.13;1.10;;;;;;;15.13;61.21;155247.03;5056887;28;20437;-76
2021/05/22 08:18:12;;;;;;;2.67;1.07;;;;;;;15.08;58.60;155234.03;5076112;28;20553;-76
2021/05/22 08:20:47;;;;;;;3.43;1.37;;;;;;;14.89;62.92;155184.66;5030136;28;20437;-76
2021/05/22 08:23:22;;;;;;;0.83;0.80;;;;;;;14.89;61.04;155184.66;5048799;28;20450;-76
2021/05/22 08:25:57;;;;;;;2.30;1.30;;;;;;;15.14;60.84;155250.91;5070078;28;20533;-76
2021/05/22 08:28:34;;;;;;;1.90;1.27;;;;;;;15.42;58.70;155322.41;5041997;28;20446;-75
2021/05/22 08:31:09;;;;;;;2.43;1.10;;;;;;;15.56;56.24;155358.84;5040878;28;20443;-76
2021/05/22 08:33:45;;;;;;;1.20;1.03;;;;;;;15.62;56.92;155374.41;5056198;28;20552;-76
2021/05/22 08:36:20;;;;;;;1.77;1.00;;;;;;;15.60;56.30;155369.22;5068066;28;20435;-76
2021/05/22 08:38:55;;;;;;;1.40;1.00;;;;;;;16.09;51.61;155494.06;5066155;28;20469;-76
2021/05/22 08:41:30;;;;;;;3.17;1.37;;;;;;;16.33;56.81;155556.47;5076131;28;20449;-76
2021/05/22 08:44:07;;;;;;;1.63;0.97;;;;;;;16.79;52.69;155674.88;5070776;28;20830;-76
2021/05/22 08:46:42;;;;;;;3.40;1.27;;;;;;;16.90;52.05;155704.81;5067695;28;20451;-76
2021/05/22 08:49:17;;;;;;;1.30;0.97;;;;;;;17.24;49.85;155791.97;5092237;28;20450;-76
2021/05/22 08:51:53;;;;;;;1.40;0.90;;;;;;;17.71;50.95;155913.13;5086593;28;20443;-79
2021/05/22 08:54:28;;;;;;;1.50;0.83;;;;;;;18.01;49.71;155991.22;5074475;28;20480;-78
2021/05/22 08:57:03;;;;;;;1.40;0.90;;;;;;;18.50;49.54;156117.59;5080443;28;20434;-76
2021/05/22 08:59:41;;;;;;;2.00;1.00;;;;;;;18.52;47.44;156121.50;5075615;28;20492;-78
2021/05/22 09:02:19;;;;;;;2.37;0.90;;;;;;;18.67;48.50;156160.56;5077411;28;20437;-76
2021/05/22 09:05:22;;;;;;;2.50;1.00;;;;;;;18.89;46.32;156217.91;5063704;28;21949;-76
2021/05/22 09:07:59;;;;;;;2.93;0.97;;;;;;;18.56;43.94;156133.19;5033255;28;20441;-77
2021/05/22 09:10:35;;;;;;;2.37;1.10;;;;;;;18.87;47.29;156212.72;5068958;28;20802;-77
2021/05/22 09:13:12;;;;;;;1.20;1.10;;;;;;;19.03;44.00;156254.41;5071910;28;20469;-78
2021/05/22 09:15:48;;;;;;;3.27;1.17;;;;;;;19.01;46.96;156247.91;5093450;28;20449;-77
2021/05/22 09:18:24;;;;;;;1.50;0.77;;;;;;;18.79;43.85;156191.84;5058934;28;20446;-77
2021/05/22 09:21:01;;;;;;;1.40;0.90;;;;;;;18.64;42.99;156154.06;5086866;28;20449;-77
2021/05/22 09:23:39;;;;;;;1.33;1.10;;;;;;;18.61;46.05;156144.97;5058094;28;20441;-77
2021/05/22 09:26:17;;;;;;;0.93;0.83;;;;;;;18.68;42.82;156163.19;5089561;28;20421;-76
2021/05/22 09:28:53;;;;;;;3.80;1.10;;;;;;;18.80;42.42;156194.44;5057120;28;20437;-77
2021/05/22 09:31:30;;;;;;;1.70;0.87;;;;;;;19.13;41.28;156280.47;5091221;28;20444;-76
2021/05/22 09:34:05;;;;;;;2.17;1.10;;;;;;;18.99;42.57;156243.97;5086234;28;20481;-77
2021/05/22 09:36:44;;;;;;;2.43;0.80;;;;;;;19.49;44.34;156371.72;5072889;28;20508;-77
2021/05/22 09:39:20;;;;;;;1.17;0.70;;;;;;;19.84;40.31;156463.00;5073246;28;20454;-77
2021/05/22 09:42:04;;;;;;;2.63;1.20;;;;;;;20.00;38.56;156504.72;5084484;28;20436;-77
2021/05/22 09:44:40;;;;;;;1.13;0.80;;;;;;;19.64;46.93;156410.84;5073310;28;20935;-77
2021/05/22 09:47:15;;;;;;;2.93;1.00;;;;;;;19.48;41.80;156369.13;5066502;28;20438;-77
2021/05/22 09:49:51;;;;;;;1.47;0.90;;;;;;;19.46;42.18;156365.19;5088226;28;20440;-77
2021/05/22 09:52:25;;;;;;;1.40;0.70;;;;;;;19.23;41.25;156306.53;5074828;28;20499;-77
2021/05/22 09:55:01;;;;;;;3.40;0.90;;;;;;;19.26;40.20;156314.34;5075023;28;20511;-77
2021/05/22 09:57:44;;;;;;;1.10;0.97;;;;;;;18.91;43.46;156221.78;5063922;28;20440;-77
2021/05/22 10:00:21;;;;;;;3.27;0.93;;;;;;;18.76;41.17;156185.34;5066560;28;20450;-76
2021/05/22 10:02:58;;;;;;;1.47;0.80;;;;;;;19.15;40.78;156284.34;5068106;28;20521;-76
2021/05/22 10:05:35;;;;;;;2.30;1.10;;;;;;;19.18;41.92;156292.19;5074652;28;20827;-77
2021/05/22 10:08:18;;;;;;;1.10;0.90;;;;;;;18.85;47.55;156208.78;5069154;28;20449;-77
2021/05/22 10:10:56;;;;;;;2.60;1.00;;;;;;;18.87;47.56;156212.72;5064587;28;20875;-76
2021/05/22 10:13:31;;;;;;;4.57;2.10;;;;;;;18.88;45.36;156215.28;5068941;28;20438;-77
2021/05/22 10:16:07;;;;;;;2.80;0.90;;;;;;;18.64;43.02;156152.75;5080207;28;20456;-77
2021/05/22 10:18:42;;;;;;;2.53;1.30;;;;;;;18.72;46.47;156173.59;5078691;28;20421;-77
2021/05/22 10:21:18;;;;;;;1.87;0.93;;;;;;;18.70;41.54;156168.38;5058261;28;20539;-77
2021/05/22 10:23:54;;;;;;;2.77;1.07;;;;;;;18.54;39.97;156126.69;5074360;28;20425;-77
2021/05/22 10:26:32;;;;;;;1.73;1.00;;;;;;;18.42;51.18;156095.41;5063804;28;20442;-77
2021/05/22 10:29:07;;;;;;;2.30;1.00;;;;;;;18.26;44.64;156055.03;5080554;28;20438;-77
2021/05/22 10:31:42;;;;;;;1.60;1.17;;;;;;;18.10;43.41;156014.66;5070586;28;20944;-76
2021/05/22 10:34:32;;;;;;;1.57;0.97;;;;;;;18.27;49.34;156056.34;5066895;28;20575;-76
2021/05/22 10:37:08;;;;;;;1.10;0.80;;;;;;;18.51;44.20;156118.88;5062312;28;20456;-76
2021/05/22 10:39:44;;;;;;;1.10;0.70;;;;;;;18.58;42.96;156138.44;5062697;28;20445;-76
2021/05/22 10:42:50;;;;;;;1.40;0.70;;;;;;;18.61;43.06;156144.97;5064921;28;20449;-76
2021/05/22 10:45:35;;;;;;;1.77;0.70;;;;;;;18.69;47.35;156165.81;5069646;28;20422;-76
2021/05/22 10:48:46;;;;;;;2.13;0.80;;;;;;;18.58;44.64;156138.44;5083417;28;20977;-76
2021/05/22 10:51:24;;;;;;;1.60;1.00;;;;;;;18.49;43.55;156114.97;5051313;28;20449;-76
2021/05/22 10:54:01;;;;;;;2.57;0.83;;;;;;;18.58;39.70;156137.13;5063396;28;21032;-76
2021/05/22 10:56:59;;;;;;;1.40;0.90;;;;;;;18.62;41.87;156148.84;5047068;28;20475;-76
2021/05/22 10:59:36;;;;;;;2.60;1.20;;;;;;;18.53;46.77;156124.13;5065871;28;20865;-76
2021/05/22 11:02:36;;;;;;;1.53;1.00;;;;;;;18.55;45.55;156129.31;5070864;28;20441;-76
2021/05/22 11:05:37;;;;;;;1.23;0.70;;;;;;;18.42;46.61;156096.72;5066350;28;20446;-76
2021/05/22 11:08:30;;;;;;;1.43;0.80;;;;;;;18.51;38.81;156118.88;5061574;28;20927;-76
2021/05/22 11:11:05;;;;;;;2.07;0.90;;;;;;;18.55;43.71;156129.31;5055414;28;20491;-76
2021/05/22 11:13:41;;;;;;;1.23;0.80;;;;;;;18.56;41.20;156131.94;5094485;28;20931;-76
2021/05/22 11:16:33;;;;;;;3.37;1.00;;;;;;;18.57;44.74;156134.53;5069297;28;20544;-76
2021/05/22 11:19:08;;;;;;;2.27;1.40;;;;;;;18.37;40.24;156083.69;5043382;28;20456;-76
2021/05/22 11:21:43;;;;;;;1.50;0.87;;;;;;;18.26;45.21;156055.03;5065642;28;21057;-76
2021/05/22 11:25:19;;;;;;;1.20;1.03;;;;;;;17.98;39.81;155983.38;5083044;28;20425;-76
2021/05/22 11:28:01;;;;;;;1.50;0.80;;;;;;;17.92;45.46;155967.78;4977019;28;20464;-90
2021/05/22 11:30:48;;;;;;;1.87;1.13;;;;;;;17.89;40.92;155959.97;5003698;28;20793;-90
2021/05/22 11:33:33;;;;;;;3.27;0.93;;;;;;;18.05;42.86;156001.66;4983919;28;20492;-91
2021/05/22 11:39:39;;;;;;;1.00;0.70;;;;;;;17.85;43.77;155949.53;4995774;28;20571;-76
2021/05/22 11:42:31;;;;;;;1.30;0.60;;;;;;;17.93;43.17;155970.38;5043190;28;20891;-77
2021/05/22 11:45:08;;;;;;;1.27;0.70;;;;;;;18.08;43.17;156009.41;5029121;28;20448;-77
2021/05/22 11:47:43;;;;;;;0.90;0.73;;;;;;;17.98;49.51;155983.38;5005684;28;20860;-77
2021/05/22 11:50:24;;;;;;;2.73;0.90;;;;;;;17.92;40.71;155966.50;5015243;28;20440;-76
2021/05/22 11:53:12;;;;;;;4.23;0.80;;;;;;;18.10;39.16;156014.66;5012898;28;20793;-76
2021/05/22 11:55:55;;;;;;;1.00;0.73;;;;;;;18.22;45.15;156044.59;5019696;28;20553;-76
2021/05/22 11:58:31;;;;;;;1.13;0.70;;;;;;;18.24;41.75;156049.84;5025476;28;20549;-76
2021/05/22 12:01:09;;;;;;;2.10;1.13;;;;;;;18.17;47.75;156031.56;5023386;28;20452;-77
2021/05/22 12:03:46;;;;;;;1.37;0.70;;;;;;;18.19;41.83;156038.09;5025962;28;20482;-77
2021/05/22 12:06:22;;;;;;;3.33;1.00;;;;;;;18.05;38.10;156001.66;5026372;28;20451;-77
2021/05/22 12:09:00;;;;;;;0.97;0.70;;;;;;;17.88;41.83;155956.03;5028997;28;20456;-77
2021/05/22 12:11:38;;;;;;;2.53;0.77;;;;;;;17.81;41.62;155937.84;5023211;28;20447;-76
2021/05/22 12:14:13;;;;;;;1.37;0.70;;;;;;;17.86;46.47;155952.16;5033441;28;20971;-75
2021/05/22 12:16:58;;;;;;;2.40;0.80;;;;;;;17.85;41.82;155948.22;5033172;28;20525;-75
2021/05/22 12:19:35;;;;;;;1.17;0.90;;;;;;;18.00;44.36;155988.59;5053861;28;20443;-75